Time;durP1;ratioP1;P1;durP2;ratioP2;P2;SDS_P1;SDS_P2;PMS_P1;PMS_P2;Temp;Humidity;BMP_temperature;BMP_pressure;BME280_temperature;BME280_humidity;BME280_pressure;Samples;Min_cycle;Max_cycle;Signal;HPM_P1;HPM_P2
2022/08/03 00:57:07;;;;;;;25.23;12.75;;;;;;;;;;6150630;23;20367;-91
2022/08/03 01:02:33;;;;;;;48.75;27.10;;;;;;;19.50;58.68;99676.22;6126270;23;20021;-91
2022/08/03 01:05:00;;;;;;;45.60;21.35;;;;;;;19.60;59.07;99691.50;6076992;23;20048;-90
2022/08/03 01:07:44;;;;;;;42.30;26.35;;;;;;;19.46;58.95;99667.84;6053236;23;20022;-90
2022/08/03 01:10:29;;;;;;;26.00;16.52;;;;;;;19.57;59.07;99695.00;6053053;23;20463;-90
2022/08/03 01:13:03;;;;;;;27.02;14.77;;;;;;;19.54;59.11;99699.31;6053029;23;20022;-90
2022/08/03 01:16:00;;;;;;;18.52;10.90;;;;;;;19.47;59.26;99699.97;6076539;23;20482;-92
2022/08/03 01:18:58;;;;;;;25.00;11.23;;;;;;;19.41;59.27;99686.75;6050534;23;20021;-89
2022/08/03 01:21:32;;;;;;;28.92;15.93;;;;;;;19.42;59.48;99689.16;6077133;23;20384;-93
2022/08/03 01:24:40;;;;;;;27.90;18.38;;;;;;;19.33;59.90;99691.31;6053629;23;20018;-91
2022/08/03 01:27:17;;;;;;;28.10;17.67;;;;;;;19.39;59.37;99691.84;6053090;23;20045;-90
2022/08/03 01:30:04;;;;;;;19.15;10.93;;;;;;;19.39;59.52;99695.41;6053261;23;20100;-90
2022/08/03 01:32:41;;;;;;;19.98;10.70;;;;;;;19.36;59.62;99689.81;6052876;23;20050;-92
2022/08/03 01:35:15;;;;;;;18.95;11.35;;;;;;;19.37;59.75;99688.63;6053441;23;20013;-92
2022/08/03 01:37:49;;;;;;;24.42;15.00;;;;;;;19.39;59.88;99689.88;6052635;23;20334;-91
2022/08/03 01:40:18;;;;;;;23.23;12.85;;;;;;;19.40;59.71;99697.06;6053312;23;20025;-93
2022/08/03 01:42:46;;;;;;;19.63;10.38;;;;;;;19.41;59.74;99701.41;6052538;23;20018;-92
2022/08/03 01:45:18;;;;;;;20.38;10.90;;;;;;;19.34;59.78;99684.63;6052455;23;20467;-92
2022/08/03 01:47:46;;;;;;;16.63;8.63;;;;;;;19.37;59.93;99700.53;6052072;23;20345;-90
2022/08/03 01:50:14;;;;;;;13.13;8.23;;;;;;;19.34;59.81;99700.47;6052200;23;20049;-92
2022/08/03 01:52:42;;;;;;;39.28;8.90;;;;;;;19.31;60.30;99701.19;6052154;23;20548;-91
2022/08/03 01:55:11;;;;;;;21.85;8.35;;;;;;;19.22;60.40;99693.06;6052281;23;20049;-92
2022/08/03 01:57:39;;;;;;;9.27;7.40;;;;;;;19.21;60.12;99689.50;6052146;23;20024;-91
2022/08/03 02:00:09;;;;;;;13.05;7.18;;;;;;;19.23;60.44;99695.47;6052524;23;20029;-91
2022/08/03 02:02:43;;;;;;;13.38;7.88;;;;;;;19.19;60.30;99696.56;6024907;23;20023;-91
2022/08/03 02:31:44;;;;;;;21.75;8.15;;;;;;;19.35;60.77;99711.19;6128830;23;20014;-92
2022/08/03 06:56:41;;;;;;;42.47;10.55;;;;;;;24.55;50.50;99764.53;6145698;23;20032;-91
2022/08/03 07:24:01;;;;;;;49.88;9.38;;;;;;;25.55;47.65;99775.69;6156043;23;20490;-89
2022/08/03 07:26:30;;;;;;;22.67;7.20;;;;;;;25.69;47.80;99776.88;6109606;23;20160;-87
2022/08/03 07:28:56;;;;;;;66.88;11.32;;;;;;;25.89;45.30;99782.84;6109266;23;20359;-87
2022/08/03 07:31:22;;;;;;;66.53;10.35;;;;;;;26.01;46.50;99768.38;6081356;23;20616;-90
2022/08/03 07:33:49;;;;;;;87.78;10.30;;;;;;;26.25;47.25;99777.88;6081206;23;20023;-85
2022/08/03 07:36:15;;;;;;;29.15;7.90;;;;;;;26.31;46.58;99775.47;6154323;23;20076;-88
2022/08/03 07:38:42;;;;;;;43.40;8.95;;;;;;;26.38;46.74;99781.00;6078944;23;20029;-91
2022/08/03 07:43:02;;;;;;;34.70;6.90;;;;;;;26.37;45.53;99785.84;6140996;23;20052;-89
2022/08/03 08:24:34;;;;;;;35.25;7.30;;;;;;;27.75;42.30;99793.56;6156522;23;20009;31
2022/08/03 09:33:59;;;;;;;29.77;7.28;;;;;;;27.69;39.79;99798.06;6070933;23;20114;-90
2022/08/03 10:18:43;;;;;;;29.17;7.53;;;;;;;28.47;39.63;99795.53;6154853;23;20068;-90
2022/08/03 10:26:18;;;;;;;15.52;6.10;;;;;;;28.73;37.84;99803.19;6067361;23;20388;-92
2022/08/03 10:29:33;;;;;;;11.63;6.43;;;;;;;28.73;38.07;99806.00;6040929;23;20022;-91
2022/08/03 10:32:30;;;;;;;16.75;6.70;;;;;;;28.76;38.48;99804.34;6064766;23;20030;-92
2022/08/03 10:35:09;;;;;;;11.10;6.32;;;;;;;28.72;36.75;99778.31;6017952;23;20026;-91
2022/08/03 10:37:44;;;;;;;16.20;8.43;;;;;;;28.78;37.89;99791.47;6042534;23;20023;-92
2022/08/03 10:41:33;;;;;;;26.98;7.05;;;;;;;28.91;38.08;99802.94;6065157;23;20061;-92
2022/08/03 10:47:59;;;;;;;12.60;7.80;;;;;;;29.01;37.05;99789.94;6041392;23;20493;-92
2022/08/03 10:50:27;;;;;;;12.13;6.75;;;;;;;29.07;38.27;99782.56;5994046;23;20019;-91
2022/08/03 10:54:03;;;;;;;8.48;5.82;;;;;;;29.08;32.62;99798.25;6046971;23;20029;-93
2022/08/03 11:01:01;;;;;;;7.32;5.80;;;;;;;29.18;36.12;99796.50;6155215;23;20112;-93
2022/08/03 11:03:29;;;;;;;9.80;5.93;;;;;;;29.16;36.40;99780.00;6082997;23;20018;-92
2022/08/03 11:09:17;;;;;;;14.43;5.82;;;;;;;29.04;35.95;99732.78;6129623;23;20100;-93
2022/08/03 11:12:47;;;;;;;11.15;6.00;;;;;;;29.57;35.00;99797.78;6082854;23;20112;-96
2022/08/03 11:15:40;;;;;;;9.20;5.80;;;;;;;29.68;35.02;99802.03;6085497;23;20021;-94
2022/08/03 11:22:45;;;;;;;16.98;5.97;;;;;;;29.76;35.86;99787.81;6152370;23;20117;-92
2022/08/03 11:25:14;;;;;;;13.27;5.50;;;;;;;29.90;32.94;99795.97;6081795;23;20344;-92
2022/08/03 11:31:58;;;;;;;12.95;5.43;;;;;;;29.98;32.81;99807.91;6158158;23;20506;-92
2022/08/03 11:34:25;;;;;;;68.35;7.53;;;;;;;29.87;32.65;99782.78;6081141;23;20018;-94
2022/08/03 11:40:57;;;;;;;10.60;5.63;;;;;;;30.22;35.08;99808.66;6130158;23;20021;-93
2022/08/03 11:47:26;;;;;;;73.63;10.25;;;;;;;29.40;33.67;99783.59;6153740;23;20022;-93
2022/08/03 11:50:05;;;;;;;43.92;7.75;;;;;;;29.21;34.61;99799.25;6105112;23;20021;-93
2022/08/03 11:52:42;;;;;;;17.58;6.25;;;;;;;29.17;36.35;99792.88;6106781;23;20019;31
2022/08/03 11:55:11;;;;;;;25.10;6.15;;;;;;;28.78;35.71;99740.03;6129045;23;20033;-92
2022/08/03 12:01:07;;;;;;;14.35;6.05;;;;;;;28.78;37.75;99760.50;6155029;23;20017;-92
2022/08/03 12:04:29;;;;;;;16.38;5.57;;;;;;;29.09;37.51;99802.66;6105082;23;20021;-92
2022/08/03 12:07:21;;;;;;;19.10;6.18;;;;;;;29.20;38.48;99796.84;6129205;23;20072;-92
2022/08/03 12:10:08;;;;;;;13.18;6.20;;;;;;;29.23;38.22;99785.50;6106529;23;20022;-92
2022/08/03 12:12:45;;;;;;;20.25;6.95;;;;;;;29.23;38.71;99773.47;6100558;23;20096;-92
2022/08/03 12:15:27;;;;;;;20.58;5.95;;;;;;;29.51;36.14;99797.50;6076483;23;20022;-92
2022/08/03 12:22:16;;;;;;;43.72;6.85;;;;;;;29.05;38.45;99728.75;6125569;23;20028;-91
2022/08/03 12:24:54;;;;;;;14.75;6.68;;;;;;;29.27;36.81;99772.19;6051818;23;20022;-91
2022/08/03 12:28:11;;;;;;;22.85;7.45;;;;;;;29.39;38.99;99790.47;6051820;23;20018;-91
2022/08/03 12:30:38;;;;;;;20.95;6.88;;;;;;;29.35;37.46;99792.56;6051962;23;20018;-93
2022/08/03 12:33:28;;;;;;;;;;;;;;;29.34;37.29;99781.72;6102528;23;20068;-92
2022/08/03 12:36:35;;;;;;;13.65;5.65;;;;;;;29.32;38.74;99789.81;6051511;23;20011;-92
2022/08/03 12:39:10;;;;;;;13.73;5.88;;;;;;;29.37;35.73;99780.84;6099859;23;20022;-93
2022/08/03 12:41:39;;;;;;;15.50;5.90;;;;;;;29.53;34.27;99786.59;6075683;23;20048;-92
2022/08/03 12:44:08;;;;;;;50.85;8.45;;;;;;;29.49;37.07;99778.22;6076681;23;20013;-90
2022/08/03 12:46:39;;;;;;;25.05;6.85;;;;;;;29.45;34.64;99782.31;6054271;23;20021;-89
2022/08/03 12:49:13;;;;;;;30.60;7.07;;;;;;;29.53;37.61;99792.22;6052891;23;20032;-89
2022/08/03 12:51:43;;;;;;;16.23;6.20;;;;;;;29.53;36.95;99797.06;6054984;23;20093;-89
2022/08/03 12:54:19;;;;;;;11.60;5.65;;;;;;;29.58;35.50;99796.59;6053249;23;20069;-87
2022/08/03 12:57:04;;;;;;;12.90;5.95;;;;;;;29.44;35.97;99781.53;6093202;23;20020;-90
2022/08/03 12:59:35;;;;;;;16.08;5.80;;;;;;;29.24;35.44;99764.59;6062660;23;20010;-92
2022/08/03 13:02:27;;;;;;;89.40;9.18;;;;;;;29.38;36.19;99797.34;6119240;23;20022;-92
2022/08/03 13:04:54;;;;;;;35.58;6.45;;;;;;;29.23;37.44;99785.50;6078973;23;19998;-90
2022/08/03 13:07:47;;;;;;;16.45;5.80;;;;;;;29.34;39.08;99798.59;6111651;23;20522;-92
2022/08/03 13:10:29;;;;;;;13.25;6.07;;;;;;;29.24;39.79;99786.34;6078593;23;20037;-93
2022/08/03 13:17:15;;;;;;;22.35;6.05;;;;;;;29.10;38.60;99766.84;6127833;23;20037;-93
2022/08/03 13:19:42;;;;;;;31.85;6.88;;;;;;;29.31;39.36;99797.47;6075995;23;20028;-92
2022/08/03 13:22:22;;;;;;;33.22;7.13;;;;;;;29.15;37.77;99772.78;6100644;23;20014;-92
2022/08/03 13:25:12;;;;;;;215.35;15.52;;;;;;;29.26;38.88;99795.91;6126147;23;20097;-92
2022/08/03 13:27:39;;;;;;;101.35;9.55;;;;;;;29.14;39.06;99788.09;6076326;23;20014;-92
2022/08/03 13:33:57;;;;;;;19.27;6.43;;;;;;;29.04;40.50;99789.09;6076915;23;20463;-92
2022/08/03 13:36:27;;;;;;;25.80;6.47;;;;;;;28.66;38.92;99741.41;6054105;23;20364;-92
2022/08/03 13:38:54;;;;;;;26.13;6.78;;;;;;;28.71;39.22;99749.38;6052233;23;20165;-92
2022/08/03 13:41:22;;;;;;;28.20;6.57;;;;;;;28.68;39.88;99747.41;6053085;23;20042;-93
2022/08/03 13:43:51;;;;;;;38.53;7.53;;;;;;;28.90;39.06;99792.06;6052026;23;20025;-92
2022/08/03 13:46:19;;;;;;;40.88;8.70;;;;;;;28.56;39.72;99731.13;6076046;23;20018;-93
2022/08/03 13:51:37;;;;;;;16.40;5.60;;;;;;;28.55;37.48;99750.00;6099952;23;20018;-92
2022/08/03 13:54:29;;;;;;;10.65;5.75;;;;;;;28.78;39.22;99793.50;6076178;23;20053;-92
2022/08/03 13:57:05;;;;;;;10.70;5.78;;;;;;;28.45;39.65;99741.75;6125802;23;20040;-93
2022/08/03 13:59:32;;;;;;;16.70;5.72;;;;;;;28.44;38.90;99740.94;6100112;23;20021;-92
2022/08/03 14:02:03;;;;;;;14.90;5.45;;;;;;;28.44;39.90;99745.75;6052154;23;20041;-92
2022/08/03 14:04:29;;;;;;;13.73;5.50;;;;;;;28.30;39.17;99724.25;6076009;23;20018;-92
2022/08/03 14:06:55;;;;;;;;;;;;;;;28.61;40.64;99780.47;6076474;23;20032;-92
2022/08/03 14:09:23;;;;;;;15.48;5.90;;;;;;;28.44;39.39;99752.16;6076612;23;19919;-93
2022/08/03 14:11:59;;;;;;;24.27;6.57;;;;;;;28.48;40.30;99763.41;6100679;23;20017;-91
2022/08/03 14:14:51;;;;;;;22.27;6.32;;;;;;;28.59;39.87;99780.91;6052431;23;20342;-93
2022/08/03 14:17:18;;;;;;;18.38;6.43;;;;;;;28.45;40.61;99761.44;6053282;23;20022;-92
2022/08/03 14:20:35;;;;;;;25.83;6.03;;;;;;;28.64;39.44;99793.69;6076928;23;20109;-92
2022/08/03 14:24:03;;;;;;;12.65;6.03;;;;;;;28.61;40.56;99788.91;6079554;23;20022;-92
2022/08/03 14:26:54;;;;;;;23.75;7.45;;;;;;;28.59;40.04;99785.75;6081358;23;20027;-90
2022/08/03 14:30:25;;;;;;;20.65;6.28;;;;;;;28.55;40.88;99786.59;6105649;23;20349;-91
2022/08/03 14:34:00;;;;;;;15.20;6.43;;;;;;;28.58;40.26;99784.94;6103742;23;20518;-92
2022/08/03 14:36:51;;;;;;;14.73;6.07;;;;;;;28.64;41.17;99788.84;6082268;23;20040;-93
2022/08/03 14:39:18;;;;;;;18.58;6.60;;;;;;;28.23;39.82;99739.19;6130080;23;20116;-91
2022/08/03 14:42:09;;;;;;;16.75;7.55;;;;;;;28.56;40.81;99790.19;6082476;23;20026;-94
2022/08/03 14:45:05;;;;;;;11.52;6.68;;;;;;;28.45;39.24;99769.88;6082345;23;20120;-93
2022/08/03 14:47:32;;;;;;;11.93;6.40;;;;;;;28.48;39.78;99752.94;6093558;23;20113;-93
2022/08/03 14:54:15;;;;;;;11.38;6.68;;;;;;;29.26;39.24;99784.66;6132196;23;20025;-93
2022/08/03 15:00:18;;;;;;;9.27;5.97;;;;;;;29.44;34.67;99747.75;6107005;23;20403;-91
2022/08/03 15:03:22;;;;;;;14.93;6.28;;;;;;;29.69;36.51;99794.38;6129455;23;20017;-92
2022/08/03 15:05:54;;;;;;;16.60;6.60;;;;;;;29.38;35.11;99762.75;6106367;23;20075;-92
2022/08/03 15:08:33;;;;;;;20.10;7.30;;;;;;;29.43;37.76;99779.13;6081643;23;20076;-94
2022/08/03 15:16:28;;;;;;;43.58;11.65;;;;;;;29.27;37.56;99797.53;6155701;23;20033;-93
2022/08/03 15:19:19;;;;;;;29.23;9.10;;;;;;;29.25;38.76;99788.72;6129828;23;20017;-92
2022/08/03 15:21:49;;;;;;;18.48;6.90;;;;;;;28.96;39.22;99773.50;6081348;23;20338;-92
2022/08/03 15:24:15;;;;;;;147.10;18.88;;;;;;;28.74;39.79;99764.59;6105617;23;20025;-92
2022/08/03 15:26:47;;;;;;;260.63;32.30;;;;;;;28.46;38.49;99737.69;6106314;23;20045;-94
2022/08/03 15:30:05;;;;;;;215.70;30.02;;;;;;;28.71;39.68;99791.56;6082360;23;20040;-90
2022/08/03 15:32:36;;;;;;;243.90;30.27;;;;;;;28.45;41.14;99781.91;6108325;23;20084;-93
2022/08/03 15:35:37;;;;;;;196.93;25.03;;;;;;;28.25;41.58;99778.94;6013773;23;20019;-90
2022/08/03 15:38:07;;;;;;;176.80;27.92;;;;;;;28.26;41.82;99788.97;6012414;23;20821;-92
2022/08/03 15:40:35;;;;;;;197.35;27.15;;;;;;;28.33;40.75;99793.69;5966237;23;20403;-93
2022/08/03 15:43:26;;;;;;;201.05;28.17;;;;;;;28.10;41.95;99755.03;5993330;23;20066;-91
2022/08/03 15:45:54;;;;;;;350.77;44.22;;;;;;;27.97;40.94;99760.41;5941787;23;20016;-93
2022/08/03 15:57:03;;;;;;;640.75;101.18;;;;;;;27.88;41.48;99799.47;6010619;23;20084;-94
2022/08/03 16:29:45;;;;;;;190.52;32.63;;;;;;;26.72;63.91;99767.19;6160228;23;20052;-82
2022/08/03 16:32:17;;;;;;;284.77;45.10;;;;;;;26.87;48.15;99777.13;6156129;23;20092;-83
2022/08/03 16:34:44;;;;;;;307.98;42.70;;;;;;;26.80;48.88;99777.19;6155080;23;20028;-84
2022/08/03 16:37:10;;;;;;;288.70;36.58;;;;;;;26.84;48.22;99793.97;6155269;23;20021;-88
2022/08/03 16:39:36;;;;;;;285.75;39.25;;;;;;;26.81;49.89;99798.41;6154374;23;20068;-82
2022/08/03 16:42:04;;;;;;;278.90;38.80;;;;;;;26.85;53.78;99793.56;6080562;23;20018;-85
2022/08/03 16:44:31;;;;;;;244.70;35.72;;;;;;;26.84;53.60;99794.78;6103713;23;20100;-85
2022/08/03 16:46:59;;;;;;;195.68;31.48;;;;;;;26.77;53.05;99788.41;6154652;23;20021;-90
2022/08/03 16:49:25;;;;;;;189.82;30.02;;;;;;;26.80;52.58;99798.81;6081180;23;20108;-86
2022/08/03 16:51:52;;;;;;;193.65;29.02;;;;;;;26.79;52.94;99783.19;6080158;23;20035;-83
2022/08/03 16:54:20;;;;;;;102.18;17.48;;;;;;;26.77;50.50;99794.03;6155144;23;20071;-83
2022/08/03 16:56:49;;;;;;;71.93;18.30;;;;;;;26.52;49.62;99791.38;6155146;23;20024;-82
2022/08/03 16:59:15;;;;;;;58.78;16.90;;;;;;;26.51;51.84;99806.63;6129541;23;20068;-82
2022/08/03 17:01:45;;;;;;;61.70;16.58;;;;;;;26.48;51.12;99797.00;6155142;23;20017;-83
2022/08/03 17:04:13;;;;;;;88.63;17.55;;;;;;;26.46;48.96;99802.22;6155629;23;20019;-84
2022/08/03 17:06:41;;;;;;;120.30;18.52;;;;;;;26.39;46.62;99800.25;6155072;23;20025;-83
2022/08/03 17:09:10;;;;;;;106.70;19.38;;;;;;;26.40;48.36;99821.47;6129142;23;20025;-90
2022/08/03 17:11:38;;;;;;;96.32;16.95;;;;;;;26.40;50.24;99813.06;6129465;23;20045;-84
2022/08/03 17:14:05;;;;;;;85.28;17.52;;;;;;;26.42;51.00;99813.44;6129079;23;20040;-83
2022/08/03 17:16:31;;;;;;;91.68;17.63;;;;;;;26.39;48.65;99817.06;6129192;23;20021;-82
2022/08/03 17:19:05;;;;;;;138.38;19.10;;;;;;;26.35;45.41;99821.06;6129020;23;20356;-88
2022/08/03 17:21:44;;;;;;;93.07;17.20;;;;;;;26.25;44.88;99828.31;6155818;23;20013;-84
2022/08/03 17:24:22;;;;;;;85.45;15.90;;;;;;;26.20;45.84;99839.97;6129489;23;20365;-83
2022/08/03 17:26:51;;;;;;;95.75;16.48;;;;;;;26.06;45.65;99835.22;6129551;23;20017;-93
2022/08/03 17:29:20;;;;;;;84.15;15.80;;;;;;;25.99;47.00;99838.84;6155302;23;20024;-83
2022/08/03 17:31:48;;;;;;;60.92;13.68;;;;;;;25.90;46.27;99837.69;6155741;23;20025;-93
2022/08/03 17:34:18;;;;;;;56.15;14.23;;;;;;;25.92;48.81;99850.06;6155749;23;20021;-84
2022/08/03 17:36:47;;;;;;;48.97;14.10;;;;;;;25.91;50.96;99851.25;6155486;23;20022;-84
2022/08/03 17:39:17;;;;;;;47.92;14.60;;;;;;;25.92;45.62;99855.66;6155967;23;20028;-81
2022/08/03 17:41:45;;;;;;;60.63;16.08;;;;;;;25.88;48.17;99854.88;6106583;23;20021;-87
2022/08/03 17:44:11;;;;;;;47.25;15.27;;;;;;;25.75;45.80;99854.47;6127976;23;20028;-86
2022/08/03 17:46:38;;;;;;;39.35;13.80;;;;;;;25.75;45.66;99862.06;6079744;23;20430;-86
2022/08/03 17:49:04;;;;;;;;;;;;;;;25.70;45.63;99856.91;6080261;23;20490;-86
2022/08/03 17:51:40;;;;;;;56.55;16.65;;;;;;;25.66;46.79;99862.50;6127843;23;20370;-86
2022/08/03 17:54:24;;;;;;;46.20;15.43;;;;;;;25.54;46.20;99858.09;6127767;23;20024;-86
2022/08/03 17:57:07;;;;;;;68.15;17.17;;;;;;;25.54;46.90;99855.31;6127432;23;20044;-89
2022/08/03 17:59:52;;;;;;;46.20;15.25;;;;;;;25.49;46.90;99860.50;6153560;23;20021;-85
2022/08/03 18:05:31;;;;;;;52.97;15.43;;;;;;;25.46;48.48;99875.28;6131978;23;20018;-85
2022/08/03 18:08:00;;;;;;;50.08;16.38;;;;;;;25.40;47.63;99871.31;6079893;23;20013;-85
2022/08/03 18:10:30;;;;;;;54.63;16.98;;;;;;;25.29;48.40;99860.91;6103388;23;20418;-86
2022/08/03 18:13:09;;;;;;;64.60;17.35;;;;;;;25.25;48.43;99876.09;6102983;23;20018;-86
2022/08/03 18:15:45;;;;;;;56.85;15.60;;;;;;;25.18;49.07;99882.50;6079153;23;20021;-87
2022/08/03 18:18:14;;;;;;;39.90;15.60;;;;;;;25.22;49.77;99890.88;6079114;23;20021;-87
2022/08/03 18:20:42;;;;;;;54.63;15.50;;;;;;;25.16;48.95;99889.69;6079554;23;20032;-85
2022/08/03 18:23:11;;;;;;;79.45;14.90;;;;;;;25.04;49.22;99882.44;6079162;23;20021;-88
2022/08/03 18:25:40;;;;;;;71.65;13.98;;;;;;;25.00;49.23;99893.63;6154452;23;20036;-86
2022/08/03 18:28:12;;;;;;;50.08;15.15;;;;;;;24.91;49.87;99884.81;6086188;23;20591;-86
2022/08/03 18:30:43;;;;;;;49.67;14.60;;;;;;;24.94;50.16;99905.63;6086962;23;20017;-85
2022/08/03 18:33:12;;;;;;;61.30;14.95;;;;;;;24.78;49.37;99901.16;6133564;23;20069;-87
2022/08/03 18:35:41;;;;;;;45.90;13.68;;;;;;;24.59;49.55;99896.69;6127770;23;20488;-89
2022/08/03 18:38:10;;;;;;;59.58;13.55;;;;;;;24.59;49.86;99919.06;6102604;23;20538;-86
2022/08/03 18:40:37;;;;;;;43.97;12.32;;;;;;;24.48;49.67;99914.63;6153190;23;20104;-87
2022/08/03 18:43:09;;;;;;;42.20;10.98;;;;;;;24.37;48.82;99900.56;6131263;23;20096;-89
2022/08/03 18:50:07;;;;;;;44.33;10.35;;;;;;;24.15;48.97;99913.66;6153241;23;20024;-91
2022/08/03 18:53:45;;;;;;;37.85;10.60;;;;;;;24.22;49.49;99932.44;6126058;23;20109;-89
2022/08/03 18:56:41;;;;;;;42.90;11.43;;;;;;;24.14;48.63;99938.00;6153470;23;20068;-90
2022/08/03 18:59:57;;;;;;;42.67;11.30;;;;;;;24.06;49.40;99930.75;6079069;23;20028;-91
2022/08/03 19:02:39;;;;;;;44.67;10.98;;;;;;;24.07;49.38;99934.31;6014957;23;20501;-90
2022/08/03 19:05:10;;;;;;;36.42;10.15;;;;;;;23.97;48.90;99921.91;6015478;23;20015;-92
2022/08/03 19:07:41;;;;;;;41.65;10.57;;;;;;;23.97;49.65;99927.47;6076539;23;20148;-90
2022/08/03 19:10:10;;;;;;;37.25;10.75;;;;;;;23.98;49.14;99942.28;6079923;23;20028;-91
2022/08/03 19:13:03;;;;;;;32.47;10.05;;;;;;;23.96;49.00;99939.06;6079989;23;20017;-87
2022/08/03 19:15:32;;;;;;;31.85;9.50;;;;;;;23.94;49.45;99936.66;6080971;23;20017;-93
2022/08/03 20:28:43;;;;;;;50.45;11.48;;;;;;;22.68;53.88;99962.47;6154979;23;20029;-89
